Time;durP1;ratioP1;P1;durP2;ratioP2;P2;SDS_P1;SDS_P2;PMS_P1;PMS_P2;Temp;Humidity;BMP_temperature;BMP_pressure;BME280_temperature;BME280_humidity;BME280_pressure;Samples;Min_cycle;Max_cycle;Signal;HPM_P1;HPM_P2
2022/07/24 00:01:04;;;;;;;;;;;27.60;54.00;;;;;;5054554;28;19943;-96
2022/07/24 00:03:30;;;;;;;;;;;27.50;54.20;;;;;;5073088;28;19939;-96
2022/07/24 00:05:56;;;;;;;;;;;27.40;54.40;;;;;;5068564;28;19943;-96
2022/07/24 00:08:22;;;;;;;;;;;27.20;54.80;;;;;;5050625;28;19942;-96
2022/07/24 00:10:48;;;;;;;;;;;27.10;55.80;;;;;;5052014;28;19945;-96
2022/07/24 00:13:14;;;;;;;;;;;26.90;55.80;;;;;;5052222;28;20032;-96
2022/07/24 00:15:40;;;;;;;;;;;26.80;55.90;;;;;;5070838;28;19961;-96
2022/07/24 00:18:06;;;;;;;;;;;26.80;56.10;;;;;;5052904;28;19948;-96
2022/07/24 00:20:32;;;;;;;;;;;26.70;56.80;;;;;;5070930;28;19937;-96
2022/07/24 00:22:58;;;;;;;;;;;26.70;56.40;;;;;;5054024;28;19958;-96
2022/07/24 00:25:24;;;;;;;;;;;26.60;56.00;;;;;;5070871;28;19978;-96
2022/07/24 00:27:50;;;;;;;;;;;26.60;56.10;;;;;;5054221;28;19950;-96
2022/07/24 00:30:19;;;;;;;;;;;26.60;56.10;;;;;;5071681;28;19943;-96
2022/07/24 00:32:45;;;;;;;;;;;26.50;55.90;;;;;;5053561;28;19942;-96
2022/07/24 00:35:13;;;;;;;;;;;26.50;55.60;;;;;;5072060;28;19966;-96
2022/07/24 00:37:39;;;;;;;;;;;26.50;55.50;;;;;;5053824;28;19943;-96
2022/07/24 00:40:05;;;;;;;;;;;26.50;55.40;;;;;;5053049;28;19955;-96
2022/07/24 00:42:31;;;;;;;;;;;26.50;55.90;;;;;;5070346;28;19939;-96
2022/07/24 00:44:57;;;;;;;;;;;26.50;55.40;;;;;;5050973;28;19961;-96
2022/07/24 00:47:22;;;;;;;;;;;26.40;55.30;;;;;;5050275;28;19950;-96
2022/07/24 00:49:48;;;;;;;;;;;26.40;55.40;;;;;;5065147;28;19950;-96
2022/07/24 00:52:14;;;;;;;;;;;26.40;55.10;;;;;;5049618;28;19971;-96
2022/07/24 00:54:40;;;;;;;;;;;26.40;54.90;;;;;;5049705;28;19968;-96
2022/07/24 00:57:06;;;;;;;;;;;26.40;54.80;;;;;;5067490;28;20027;-96
2022/07/24 00:59:31;;;;;;;;;;;26.30;54.80;;;;;;5051218;28;19943;-96
2022/07/24 01:01:57;;;;;;;;;;;26.30;55.00;;;;;;5066517;28;19942;-96
2022/07/24 01:04:23;;;;;;;;;;;26.30;54.80;;;;;;5066826;28;20358;-96
2022/07/24 01:06:49;;;;;;;;;;;26.30;55.40;;;;;;5050566;28;20368;-96
2022/07/24 01:09:15;;;;;;;;;;;26.30;55.40;;;;;;5052201;28;19952;-96
2022/07/24 01:11:42;;;;;;;;;;;26.20;55.60;;;;;;5052830;28;20398;-96
2022/07/24 01:14:08;;;;;;;;;;;26.10;55.70;;;;;;5053305;28;19943;-96
2022/07/24 01:16:35;;;;;;;;;;;26.00;56.10;;;;;;5072204;28;19939;-96
2022/07/24 01:19:01;;;;;;;;;;;25.90;56.30;;;;;;5053980;28;19946;-96
2022/07/24 01:21:27;;;;;;;;;;;25.80;56.40;;;;;;5054241;28;20031;-96
2022/07/24 01:23:53;;;;;;;;;;;25.80;57.00;;;;;;5054603;28;19957;-96
2022/07/24 01:26:19;;;;;;;;;;;25.80;57.90;;;;;;5054470;28;19945;-96
2022/07/24 01:28:45;;;;;;;;;;;25.80;58.00;;;;;;5072147;28;19944;-96
2022/07/24 01:31:12;;;;;;;;;;;25.80;58.40;;;;;;5053988;28;19967;-96
2022/07/24 01:33:37;;;;;;;;;;;25.70;58.50;;;;;;5054380;28;19948;-96
2022/07/24 01:36:03;;;;;;;;;;;25.70;58.60;;;;;;5053061;28;19974;-96
2022/07/24 01:38:29;;;;;;;;;;;25.60;59.80;;;;;;5051925;28;19946;-96
2022/07/24 01:40:55;;;;;;;;;;;25.50;59.70;;;;;;5069840;28;19943;-96
2022/07/24 01:43:21;;;;;;;;;;;25.50;61.10;;;;;;5067391;28;19935;-96
2022/07/24 01:45:47;;;;;;;;;;;25.50;59.90;;;;;;5048491;28;19943;-96
2022/07/24 01:48:13;;;;;;;;;;;25.50;60.10;;;;;;5048488;28;19942;-96
2022/07/24 01:50:38;;;;;;;;;;;25.50;60.30;;;;;;5066538;28;19945;-96
2022/07/24 01:53:04;;;;;;;;;;;25.30;60.50;;;;;;5048215;28;19997;-96
2022/07/24 01:55:30;;;;;;;;;;;25.20;61.60;;;;;;5046316;28;19964;-96
2022/07/24 01:57:56;;;;;;;;;;;25.00;61.20;;;;;;5060923;28;19941;-96
2022/07/24 02:00:22;;;;;;;;;;;24.80;62.20;;;;;;5044381;28;19948;-96
2022/07/24 02:02:47;;;;;;;;;;;24.70;64.50;;;;;;5062172;28;19943;-96
2022/07/24 02:05:13;;;;;;;;;;;24.50;65.40;;;;;;5064212;28;20398;-96
2022/07/24 02:07:40;;;;;;;;;;;24.50;64.90;;;;;;5047237;28;19948;-96
2022/07/24 02:10:06;;;;;;;;;;;24.60;63.90;;;;;;5065191;28;19952;-96
2022/07/24 02:12:32;;;;;;;;;;;24.70;64.20;;;;;;5047485;28;19981;-96
2022/07/24 02:14:58;;;;;;;;;;;24.70;63.40;;;;;;5065595;28;19960;-96
2022/07/24 02:17:24;;;;;;;;;;;24.70;64.10;;;;;;5066573;28;19977;-96
2022/07/24 02:19:50;;;;;;;;;;;24.60;64.20;;;;;;5065280;28;19940;-96
2022/07/24 02:22:15;;;;;;;;;;;24.70;65.00;;;;;;5063040;28;19940;-96
2022/07/24 02:24:41;;;;;;;;;;;24.60;65.30;;;;;;5066196;28;19980;-96
2022/07/24 02:27:07;;;;;;;;;;;24.60;66.60;;;;;;5048928;28;20021;-96
2022/07/24 02:29:32;;;;;;;;;;;24.40;65.90;;;;;;5048991;28;20004;-96
2022/07/24 02:31:58;;;;;;;;;;;24.30;65.70;;;;;;5066174;28;19963;-96
2022/07/24 02:34:24;;;;;;;;;;;24.20;66.40;;;;;;5046969;28;19942;-96
2022/07/24 02:36:50;;;;;;;;;;;24.20;66.00;;;;;;5046034;28;19994;-96
2022/07/24 02:39:15;;;;;;;;;;;24.10;67.00;;;;;;5062569;28;19952;-96
2022/07/24 02:41:41;;;;;;;;;;;24.10;66.70;;;;;;5063851;28;19952;-96
2022/07/24 02:44:06;;;;;;;;;;;24.10;66.70;;;;;;5049407;28;19942;-96
2022/07/24 02:46:32;;;;;;;;;;;24.10;66.20;;;;;;5066528;28;19941;-96
2022/07/24 02:48:58;;;;;;;;;;;24.00;66.20;;;;;;5067448;28;19938;-96
2022/07/24 02:51:23;;;;;;;;;;;23.80;67.00;;;;;;5067563;28;19946;-96
2022/07/24 02:53:49;;;;;;;;;;;23.70;67.50;;;;;;5068690;28;20315;-96
2022/07/24 02:56:15;;;;;;;;;;;23.70;67.00;;;;;;5049628;28;19973;-96
2022/07/24 02:58:41;;;;;;;;;;;23.70;66.40;;;;;;5069839;28;19996;-96
2022/07/24 03:01:07;;;;;;;;;;;23.70;67.90;;;;;;5053924;28;19943;-96
2022/07/24 03:03:33;;;;;;;;;;;23.70;67.90;;;;;;5071851;28;20013;-96
2022/07/24 03:05:59;;;;;;;;;;;23.60;68.60;;;;;;5071404;28;19940;-96
2022/07/24 03:08:24;;;;;;;;;;;23.50;67.80;;;;;;5070920;28;19935;-96
2022/07/24 03:10:51;;;;;;;;;;;23.40;67.60;;;;;;5054508;28;19945;-96
2022/07/24 03:13:17;;;;;;;;;;;23.40;67.50;;;;;;5072958;28;19941;-96
2022/07/24 03:15:43;;;;;;;;;;;23.40;69.10;;;;;;5072528;28;19965;-96
2022/07/24 03:18:11;;;;;;;;;;;23.30;68.90;;;;;;5073449;28;19944;-96
2022/07/24 03:20:38;;;;;;;;;;;23.30;68.30;;;;;;5072631;28;19945;-96
2022/07/24 03:23:04;;;;;;;;;;;23.30;68.00;;;;;;5073468;28;19947;-96
2022/07/24 03:25:30;;;;;;;;;;;23.40;69.20;;;;;;5055935;28;19985;-96
2022/07/24 03:27:56;;;;;;;;;;;23.40;70.70;;;;;;5073814;28;19935;-96
2022/07/24 03:30:22;;;;;;;;;;;23.40;70.60;;;;;;5056859;28;19939;-96
2022/07/24 03:32:48;;;;;;;;;;;23.30;70.10;;;;;;5074651;28;19946;-96
2022/07/24 03:35:14;;;;;;;;;;;23.30;70.00;;;;;;5073592;28;20024;-96
2022/07/24 03:37:41;;;;;;;;;;;23.30;70.80;;;;;;5056299;28;19944;-96
2022/07/24 03:40:07;;;;;;;;;;;23.30;71.30;;;;;;5055675;28;19993;-96
2022/07/24 03:42:33;;;;;;;;;;;23.30;71.10;;;;;;5072857;28;19936;-96
2022/07/24 03:44:58;;;;;;;;;;;23.40;70.10;;;;;;5072047;28;19955;-96
2022/07/24 03:47:24;;;;;;;;;;;23.40;69.80;;;;;;5070819;28;19940;-96
2022/07/24 03:49:53;;;;;;;;;;;23.30;70.40;;;;;;5070223;28;19943;-96
2022/07/24 03:52:19;;;;;;;;;;;23.30;69.10;;;;;;5051585;28;19948;-96
2022/07/24 03:54:45;;;;;;;;;;;23.20;68.80;;;;;;5050008;28;20497;-96
2022/07/24 03:57:10;;;;;;;;;;;23.30;68.10;;;;;;5053063;28;19947;-96
2022/07/24 03:59:36;;;;;;;;;;;23.40;68.70;;;;;;5055169;28;19946;-96
2022/07/24 04:02:03;;;;;;;;;;;23.40;69.50;;;;;;5073097;28;19936;-96
2022/07/24 04:04:29;;;;;;;;;;;23.30;70.40;;;;;;5055293;28;19945;-96
2022/07/24 04:06:55;;;;;;;;;;;23.30;69.30;;;;;;5072699;28;19953;-96
2022/07/24 04:09:21;;;;;;;;;;;23.40;69.30;;;;;;5055683;28;19940;-96
2022/07/24 04:11:47;;;;;;;;;;;23.60;71.00;;;;;;5055495;28;20009;-96
2022/07/24 04:14:13;;;;;;;;;;;23.50;70.90;;;;;;5056293;28;19942;-96
2022/07/24 04:16:40;;;;;;;;;;;23.50;70.10;;;;;;5073212;28;20025;-96
2022/07/24 04:19:06;;;;;;;;;;;23.50;69.90;;;;;;5073142;28;19947;-96
2022/07/24 04:21:32;;;;;;;;;;;23.40;69.40;;;;;;5073743;28;19941;-96
2022/07/24 04:23:58;;;;;;;;;;;23.50;69.10;;;;;;5056113;28;19961;-96
2022/07/24 04:26:24;;;;;;;;;;;23.50;70.10;;;;;;5072430;28;19984;-96
2022/07/24 04:28:51;;;;;;;;;;;23.60;70.30;;;;;;5056494;28;20002;-96
2022/07/24 04:31:17;;;;;;;;;;;23.60;68.40;;;;;;5056612;28;19945;-96
2022/07/24 04:33:43;;;;;;;;;;;23.60;68.10;;;;;;5073735;28;19971;-96
2022/07/24 04:36:10;;;;;;;;;;;23.70;68.10;;;;;;5055368;28;19971;-96
2022/07/24 04:38:36;;;;;;;;;;;23.90;69.30;;;;;;5054926;28;19939;-96
2022/07/24 04:41:05;;;;;;;;;;;23.90;70.80;;;;;;5072992;28;19997;-96
2022/07/24 04:43:33;;;;;;;;;;;23.90;69.90;;;;;;5054534;28;19957;-96
2022/07/24 04:46:03;;;;;;;;;;;24.00;68.80;;;;;;5054812;28;19943;-96
2022/07/24 04:48:28;;;;;;;;;;;24.00;70.30;;;;;;5054068;28;19947;-96
2022/07/24 04:50:55;;;;;;;;;;;24.00;70.00;;;;;;5070084;28;19951;-96
2022/07/24 04:53:22;;;;;;;;;;;24.10;68.70;;;;;;5069025;28;19939;-96
2022/07/24 04:55:47;;;;;;;;;;;24.00;68.10;;;;;;5069439;28;19997;-96
2022/07/24 04:58:15;;;;;;;;;;;24.00;68.50;;;;;;5054508;28;19949;-96
2022/07/24 05:00:41;;;;;;;;;;;24.00;68.80;;;;;;5054961;28;19945;-96
2022/07/24 05:03:07;;;;;;;;;;;24.00;70.40;;;;;;5054788;28;19991;-96
2022/07/24 05:05:34;;;;;;;;;;;23.90;68.40;;;;;;5054509;28;19944;-96
2022/07/24 05:08:00;;;;;;;;;;;24.00;68.80;;;;;;5073789;28;19943;-96
2022/07/24 05:10:26;;;;;;;;;;;24.10;67.30;;;;;;5056874;28;19944;-96
2022/07/24 05:12:52;;;;;;;;;;;24.30;66.10;;;;;;5056067;28;19938;-96
2022/07/24 05:15:19;;;;;;;;;;;24.40;66.70;;;;;;5055581;28;20053;-96
2022/07/24 05:17:45;;;;;;;;;;;24.50;69.20;;;;;;5054873;28;19961;-96
2022/07/24 05:20:10;;;;;;;;;;;24.50;69.30;;;;;;5054831;28;20011;-96
2022/07/24 05:22:37;;;;;;;;;;;24.50;69.10;;;;;;5054710;28;19948;-96
2022/07/24 05:25:03;;;;;;;;;;;24.50;69.10;;;;;;5071270;28;19979;-96
2022/07/24 05:27:30;;;;;;;;;;;24.60;66.90;;;;;;5055076;28;19953;-96
2022/07/24 05:29:56;;;;;;;;;;;24.70;67.30;;;;;;5055004;28;19942;-96
2022/07/24 05:32:23;;;;;;;;;;;24.70;66.90;;;;;;5055095;28;19940;-96
2022/07/24 05:34:52;;;;;;;;;;;24.90;67.00;;;;;;5055425;28;19983;-96
2022/07/24 05:37:19;;;;;;;;;;;25.00;66.70;;;;;;5055365;28;19959;-96
2022/07/24 05:39:45;;;;;;;;;;;25.10;66.00;;;;;;5072171;28;19941;-96
2022/07/24 05:42:12;;;;;;;;;;;25.20;65.30;;;;;;5071658;28;20008;-96
2022/07/24 05:44:41;;;;;;;;;;;25.30;64.20;;;;;;5053953;28;19951;-96
2022/07/24 05:47:06;;;;;;;;;;;25.50;63.60;;;;;;5072546;28;19935;-96
2022/07/24 05:49:33;;;;;;;;;;;25.50;63.20;;;;;;5054872;28;20089;-96
2022/07/24 05:51:59;;;;;;;;;;;25.60;62.40;;;;;;5054547;28;19938;-96
2022/07/24 05:54:26;;;;;;;;;;;25.70;62.50;;;;;;5071876;28;19942;-96
2022/07/24 05:56:55;;;;;;;;;;;25.80;62.30;;;;;;5050085;28;20007;-96
2022/07/24 05:59:21;;;;;;;;;;;25.90;61.90;;;;;;5050071;28;19942;-96
2022/07/24 06:01:46;;;;;;;;;;;26.10;61.60;;;;;;5049689;28;19956;-96
2022/07/24 06:04:15;;;;;;;;;;;26.20;61.00;;;;;;5067906;28;20001;-96
2022/07/24 06:06:40;;;;;;;;;;;26.40;61.40;;;;;;5048427;28;19965;-96
2022/07/24 06:09:06;;;;;;;;;;;26.50;60.50;;;;;;5051044;28;19948;-96
2022/07/24 06:11:34;;;;;;;;;;;26.50;61.00;;;;;;5071784;28;19983;-96
2022/07/24 06:14:00;;;;;;;;;;;26.60;61.00;;;;;;5053029;28;19942;-96
2022/07/24 06:16:26;;;;;;;;;;;26.60;61.10;;;;;;5070280;28;20314;-96
2022/07/24 06:18:53;;;;;;;;;;;26.70;61.50;;;;;;5072224;28;19992;-96
2022/07/24 06:21:18;;;;;;;;;;;26.70;60.70;;;;;;5055109;28;19979;-96
2022/07/24 06:26:21;;;;;;;;;;;26.80;60.80;;;;;;5063966;28;20222;-96
2022/07/24 06:28:47;;;;;;;;;;;27.00;60.50;;;;;;5043593;28;20311;-96
2022/07/24 06:31:12;;;;;;;;;;;27.10;60.20;;;;;;5045216;28;19946;-96
2022/07/24 06:33:38;;;;;;;;;;;27.10;60.70;;;;;;5064790;28;19936;-96
2022/07/24 06:36:04;;;;;;;;;;;27.20;60.40;;;;;;5071354;28;19973;-96
2022/07/24 06:38:29;;;;;;;;;;;27.30;59.90;;;;;;5083449;28;20000;-96
2022/07/24 06:40:55;;;;;;;;;;;27.40;58.20;;;;;;5065301;28;20048;-96
2022/07/24 06:43:21;;;;;;;;;;;27.50;58.30;;;;;;5083195;28;19936;-96
2022/07/24 06:45:46;;;;;;;;;;;27.60;57.60;;;;;;5064044;28;19946;-96
2022/07/24 06:48:12;;;;;;;;;;;27.70;56.00;;;;;;5064922;28;19978;-96
2022/07/24 06:50:38;;;;;;;;;;;27.90;55.40;;;;;;5064919;28;19985;-96
2022/07/24 06:53:03;;;;;;;;;;;28.00;54.70;;;;;;5064377;28;19952;-96
2022/07/24 06:55:29;;;;;;;;;;;28.10;54.30;;;;;;5079874;28;19963;-96
2022/07/24 06:57:54;;;;;;;;;;;28.30;53.80;;;;;;5079551;28;20319;-96
2022/07/24 07:00:20;;;;;;;;;;;28.40;53.20;;;;;;5059830;28;19944;-96
2022/07/24 07:02:46;;;;;;;;;;;28.50;52.70;;;;;;5079254;28;19988;-96
2022/07/24 07:05:11;;;;;;;;;;;28.70;52.20;;;;;;5063149;28;19973;-96
2022/07/24 07:07:37;;;;;;;;;;;28.80;52.30;;;;;;5062830;28;19947;-96
2022/07/24 07:10:04;;;;;;;;;;;28.80;52.40;;;;;;5082151;28;19945;-96
2022/07/24 07:12:30;;;;;;;;;;;28.90;51.50;;;;;;5083408;28;19951;-96
2022/07/24 07:14:57;;;;;;;;;;;29.00;50.80;;;;;;5065413;28;19972;-96
2022/07/24 07:17:23;;;;;;;;;;;29.10;50.90;;;;;;5084955;28;19936;-96
2022/07/24 07:19:49;;;;;;;;;;;29.10;49.20;;;;;;5069362;28;19954;-96
2022/07/24 07:22:18;;;;;;;;;;;29.20;49.50;;;;;;5069681;28;19945;-96
2022/07/24 07:24:44;;;;;;;;;;;29.20;48.90;;;;;;5095484;28;19985;-96
2022/07/24 07:27:10;;;;;;;;;;;29.30;49.10;;;;;;5109704;28;19941;-96
2022/07/24 07:29:36;;;;;;;;;;;29.30;49.60;;;;;;5112558;28;19948;-96
2022/07/24 07:32:05;;;;;;;;;;;29.40;48.30;;;;;;5095380;28;20058;-97
2022/07/24 07:34:31;;;;;;;;;;;29.50;48.30;;;;;;5095259;28;19962;-96
2022/07/24 07:36:56;;;;;;;;;;;29.60;48.40;;;;;;5112035;28;20305;-96
2022/07/24 07:39:22;;;;;;;;;;;29.70;47.50;;;;;;5093681;28;20030;-96
2022/07/24 07:41:48;;;;;;;;;;;29.70;47.30;;;;;;5092948;28;19956;-96
2022/07/24 07:44:14;;;;;;;;;;;29.80;47.70;;;;;;5094836;28;19941;-96
2022/07/24 07:46:41;;;;;;;;;;;29.80;46.90;;;;;;5095471;28;19947;-96
2022/07/24 07:49:07;;;;;;;;;;;29.90;47.90;;;;;;5094742;28;19949;-96
2022/07/24 07:51:33;;;;;;;;;;;30.00;46.90;;;;;;5095283;28;19986;-96
2022/07/24 07:53:59;;;;;;;;;;;30.10;45.50;;;;;;5112552;28;19944;-96
2022/07/24 07:56:25;;;;;;;;;;;30.20;44.90;;;;;;5092965;28;19967;-96
2022/07/24 07:58:51;;;;;;;;;;;30.30;43.60;;;;;;5108921;28;19943;-96
2022/07/24 08:01:17;;;;;;;;;;;30.40;43.90;;;;;;5108610;28;20024;-96
2022/07/24 08:03:43;;;;;;;;;;;30.50;43.80;;;;;;5109010;28;20336;-96
2022/07/24 08:06:09;;;;;;;;;;;30.60;44.30;;;;;;5092180;28;20278;-96
2022/07/24 08:08:35;;;;;;;;;;;30.70;43.50;;;;;;5091756;28;20004;-96
2022/07/24 08:11:00;;;;;;;;;;;30.80;43.30;;;;;;5091604;28;19935;-96
2022/07/24 08:13:29;;;;;;;;;;;30.90;42.90;;;;;;5111254;28;19951;-96
2022/07/24 08:15:55;;;;;;;;;;;31.00;42.50;;;;;;5095048;28;19962;-96
2022/07/24 08:18:21;;;;;;;;;;;31.00;42.40;;;;;;5094195;28;19960;-96
2022/07/24 08:20:48;;;;;;;;;;;31.10;43.60;;;;;;5093764;28;19937;-97
2022/07/24 08:23:14;;;;;;;;;;;31.10;43.50;;;;;;5111985;28;20007;-96
2022/07/24 08:25:40;;;;;;;;;;;31.10;43.30;;;;;;5094129;28;19982;-96
2022/07/24 08:28:08;;;;;;;;;;;31.20;43.90;;;;;;5112253;28;19972;-96
2022/07/24 08:30:34;;;;;;;;;;;31.20;43.30;;;;;;5110977;28;20005;-96
2022/07/24 08:33:00;;;;;;;;;;;31.20;43.30;;;;;;5094226;28;20036;-96
2022/07/24 08:35:29;;;;;;;;;;;31.20;43.20;;;;;;5111311;28;19972;-96
2022/07/24 08:37:54;;;;;;;;;;;31.20;42.60;;;;;;5112830;28;19939;-96
2022/07/24 08:40:22;;;;;;;;;;;31.30;44.90;;;;;;5094125;28;19937;-96
2022/07/24 08:42:48;;;;;;;;;;;31.30;43.60;;;;;;5093509;28;19953;-96
2022/07/24 08:45:17;;;;;;;;;;;31.40;42.30;;;;;;5093395;28;19947;-96
2022/07/24 08:47:42;;;;;;;;;;;31.50;42.70;;;;;;5110653;28;19950;-96
2022/07/24 08:50:09;;;;;;;;;;;31.50;41.70;;;;;;5093557;28;19951;-96
2022/07/24 08:52:35;;;;;;;;;;;31.60;42.80;;;;;;5093360;28;19944;-96
2022/07/24 08:55:03;;;;;;;;;;;31.60;40.40;;;;;;5111196;28;19957;-96
2022/07/24 08:57:30;;;;;;;;;;;31.60;42.00;;;;;;5092702;28;19952;-96
2022/07/24 08:59:55;;;;;;;;;;;31.60;40.10;;;;;;5110793;28;20427;-96
2022/07/24 09:02:21;;;;;;;;;;;31.70;40.10;;;;;;5092518;28;19976;-96
2022/07/24 09:04:48;;;;;;;;;;;31.80;41.00;;;;;;5091996;28;19940;-96
2022/07/24 09:07:14;;;;;;;;;;;31.80;42.00;;;;;;5091816;28;19936;-96
2022/07/24 09:09:41;;;;;;;;;;;31.80;42.20;;;;;;5089450;28;19950;-96
2022/07/24 09:12:08;;;;;;;;;;;31.80;41.60;;;;;;5090822;28;19949;-96
2022/07/24 09:14:35;;;;;;;;;;;31.70;42.00;;;;;;5091302;28;19950;-96
2022/07/24 09:17:02;;;;;;;;;;;31.80;42.90;;;;;;5091845;28;20006;-96
2022/07/24 09:19:28;;;;;;;;;;;31.80;42.50;;;;;;5091679;28;20414;-96
2022/07/24 09:21:54;;;;;;;;;;;31.80;43.00;;;;;;5091104;28;19954;-96
2022/07/24 09:24:21;;;;;;;;;;;31.90;44.00;;;;;;5089935;28;19988;-96
2022/07/24 09:26:50;;;;;;;;;;;32.10;44.40;;;;;;5107145;28;19937;-96
2022/07/24 09:29:16;;;;;;;;;;;32.00;42.00;;;;;;5088681;28;20004;-96
2022/07/24 09:31:51;;;;;;;;;;;32.10;43.20;;;;;;5089847;28;19941;-96
2022/07/24 09:34:16;;;;;;;;;;;32.20;42.80;;;;;;5108887;28;19940;-96
2022/07/24 09:36:54;;;;;;;;;;;32.20;40.40;;;;;;5088944;28;20059;-96
2022/07/24 09:39:23;;;;;;;;;;;32.30;40.50;;;;;;5107396;28;20041;-96
2022/07/24 09:41:52;;;;;;;;;;;32.40;40.10;;;;;;5107569;28;19942;-96
2022/07/24 09:44:18;;;;;;;;;;;32.50;39.20;;;;;;5107662;28;20387;-96
2022/07/24 09:46:59;;;;;;;;;;;32.60;38.30;;;;;;5089544;28;19953;-96
2022/07/24 09:49:25;;;;;;;;;;;32.60;38.90;;;;;;5108057;28;19941;-96
2022/07/24 09:52:07;;;;;;;;;;;32.70;39.70;;;;;;5105957;28;19947;-96
2022/07/24 09:54:34;;;;;;;;;;;32.90;39.10;;;;;;5089383;28;19944;-96
2022/07/24 09:57:19;;;;;;;;;;;33.10;39.50;;;;;;5092228;28;19943;-96
2022/07/24 09:59:49;;;;;;;;;;;33.20;38.80;;;;;;5109824;28;19952;-96
2022/07/24 10:02:16;;;;;;;;;;;33.30;39.00;;;;;;5092969;28;19942;-96
2022/07/24 10:04:43;;;;;;;;;;;33.30;39.70;;;;;;5109969;28;19944;-96
2022/07/24 10:07:12;;;;;;;;;;;33.50;37.40;;;;;;5110927;28;19945;-96
2022/07/24 10:09:40;;;;;;;;;;;33.40;37.90;;;;;;5110681;28;19970;-96
2022/07/24 10:12:10;;;;;;;;;;;33.40;39.20;;;;;;5110366;28;19945;-96
2022/07/24 10:14:36;;;;;;;;;;;33.60;36.90;;;;;;5094316;28;19948;-96
2022/07/24 10:17:07;;;;;;;;;;;33.70;37.30;;;;;;5094505;28;19943;-96
2022/07/24 10:19:38;;;;;;;;;;;33.70;36.10;;;;;;5093642;28;20292;-96
2022/07/24 10:22:08;;;;;;;;;;;33.70;35.10;;;;;;5094067;28;20011;-96
2022/07/24 10:24:34;;;;;;;;;;;33.80;35.60;;;;;;5095596;28;20023;-96
2022/07/24 10:27:05;;;;;;;;;;;33.90;34.50;;;;;;5094905;28;19949;-96
2022/07/24 10:29:33;;;;;;;;;;;34.00;35.80;;;;;;5094784;28;19998;-96
2022/07/24 10:31:59;;;;;;;;;;;34.20;36.80;;;;;;5112911;28;19942;-96
2022/07/24 10:34:46;;;;;;;;;;;34.30;37.20;;;;;;5093790;28;20464;-96
2022/07/24 10:37:12;;;;;;;;;;;34.50;37.30;;;;;;5112105;28;19986;-96
2022/07/24 10:39:42;;;;;;;;;;;34.60;36.40;;;;;;5094136;28;19937;-96
2022/07/24 10:42:08;;;;;;;;;;;34.70;36.20;;;;;;5094214;28;20011;-96
2022/07/24 10:44:37;;;;;;;;;;;34.90;36.90;;;;;;5093472;28;19987;-96
2022/07/24 10:47:05;;;;;;;;;;;35.00;37.40;;;;;;5094289;28;19943;-96
2022/07/24 10:49:50;;;;;;;;;;;35.10;35.00;;;;;;5111357;28;20004;-96
2022/07/24 10:52:23;;;;;;;;;;;35.20;35.50;;;;;;5110318;28;20472;-96
2022/07/24 10:55:08;;;;;;;;;;;35.20;36.30;;;;;;5110635;28;20446;-96
2022/07/24 10:58:09;;;;;;;;;;;35.30;36.20;;;;;;5093190;28;20022;-96
2022/07/24 11:00:37;;;;;;;;;;;35.40;36.10;;;;;;5013596;28;19949;-96
2022/07/24 11:03:05;;;;;;;;;;;35.50;37.70;;;;;;5101048;28;19961;-96
2022/07/24 11:05:35;;;;;;;;;;;35.50;34.30;;;;;;5099468;28;19945;-96
2022/07/24 11:08:17;;;;;;;;;;;35.60;37.30;;;;;;5098830;28;19947;-96
2022/07/24 11:10:47;;;;;;;;;;;35.80;36.40;;;;;;5097980;28;20296;-96
2022/07/24 11:16:18;;;;;;;;;;;36.20;35.60;;;;;;5117644;28;19961;-96
2022/07/24 11:18:47;;;;;;;;;;;36.40;36.20;;;;;;5117118;28;19940;-96
2022/07/24 11:21:33;;;;;;;;;;;36.60;34.50;;;;;;5099234;28;20023;-96
2022/07/24 11:24:21;;;;;;;;;;;36.70;34.60;;;;;;5098896;28;19945;-96
2022/07/24 11:26:47;;;;;;;;;;;36.90;34.00;;;;;;5097946;28;19945;-96
2022/07/24 11:29:15;;;;;;;;;;;37.10;34.30;;;;;;5115716;28;19943;-96
2022/07/24 11:31:45;;;;;;;;;;;37.30;34.50;;;;;;5097669;28;20317;-96
2022/07/24 11:34:11;;;;;;;;;;;37.40;35.20;;;;;;5115862;28;19938;-96
2022/07/24 11:36:40;;;;;;;;;;;37.40;33.20;;;;;;5115930;28;19975;-96
2022/07/24 11:39:07;;;;;;;;;;;37.60;32.40;;;;;;5098751;28;19970;-96
2022/07/24 11:41:46;;;;;;;;;;;37.70;32.80;;;;;;5099242;28;19969;-96
2022/07/24 11:44:12;;;;;;;;;;;37.80;31.70;;;;;;5098466;28;19938;-97
2022/07/24 11:46:39;;;;;;;;;;;38.00;30.60;;;;;;5117442;28;19954;-96
2022/07/24 11:49:06;;;;;;;;;;;38.10;31.50;;;;;;5099614;28;19941;-96
2022/07/24 11:51:33;;;;;;;;;;;38.10;31.00;;;;;;5116670;28;19964;-96
2022/07/24 11:54:01;;;;;;;;;;;37.80;30.40;;;;;;5081906;28;19925;-96
2022/07/24 11:56:30;;;;;;;;;;;37.70;30.50;;;;;;5116439;28;20048;-96
2022/07/24 11:58:56;;;;;;;;;;;37.80;31.00;;;;;;5097955;28;19946;-96
2022/07/24 12:01:22;;;;;;;;;;;37.80;31.30;;;;;;5098231;28;19990;-96
2022/07/24 12:03:52;;;;;;;;;;;37.70;30.20;;;;;;5098623;28;19955;-96
2022/07/24 12:06:20;;;;;;;;;;;37.90;32.00;;;;;;5100239;28;19949;-96
2022/07/24 12:08:49;;;;;;;;;;;38.10;31.00;;;;;;5118806;28;19939;-96
2022/07/24 12:11:24;;;;;;;;;;;38.60;30.90;;;;;;5084869;28;20046;-96
2022/07/24 12:13:53;;;;;;;;;;;38.80;31.10;;;;;;5100387;28;19943;-96
2022/07/24 12:16:36;;;;;;;;;;;39.10;31.30;;;;;;5119780;28;19963;-96
2022/07/24 12:19:16;;;;;;;;;;;39.40;29.10;;;;;;5101961;28;19950;-96
2022/07/24 12:21:44;;;;;;;;;;;39.80;28.40;;;;;;5100767;28;19951;-96
2022/07/24 12:24:13;;;;;;;;;;;40.10;28.10;;;;;;5083579;28;19953;-96
2022/07/24 12:27:01;;;;;;;;;;;40.20;29.20;;;;;;5100072;28;19973;-96
2022/07/24 12:29:40;;;;;;;;;;;40.50;29.10;;;;;;5098748;28;19966;-96
2022/07/24 12:32:15;;;;;;;;;;;40.40;27.10;;;;;;5096856;28;19946;-96
2022/07/24 12:34:45;;;;;;;;;;;40.60;27.30;;;;;;5116165;28;19935;-96
2022/07/24 12:37:16;;;;;;;;;;;40.80;27.90;;;;;;5098244;28;20017;-96
2022/07/24 12:39:53;;;;;;;;;;;41.10;26.80;;;;;;5099021;28;19985;-97
2022/07/24 12:42:30;;;;;;;;;;;41.50;26.20;;;;;;5098740;28;20362;-96
2022/07/24 12:45:04;;;;;;;;;;;41.60;25.20;;;;;;5093073;28;19954;-96
2022/07/24 12:47:30;;;;;;;;;;;41.20;26.90;;;;;;5110199;28;20398;-96
2022/07/24 12:49:56;;;;;;;;;;;41.00;25.80;;;;;;5110066;28;19950;-96
2022/07/24 12:52:23;;;;;;;;;;;41.00;26.50;;;;;;5094636;28;19981;-96
2022/07/24 12:54:50;;;;;;;;;;;41.00;27.40;;;;;;5111542;28;19944;-96
2022/07/24 12:57:16;;;;;;;;;;;41.10;26.60;;;;;;5111916;28;19936;-96
2022/07/24 12:59:44;;;;;;;;;;;41.40;26.30;;;;;;5115883;28;20024;-96
2022/07/24 13:02:19;;;;;;;;;;;41.90;24.60;;;;;;5100455;28;19967;-96
2022/07/24 13:04:47;;;;;;;;;;;42.50;23.80;;;;;;5100256;28;19954;-96
2022/07/24 13:07:18;;;;;;;;;;;42.90;23.90;;;;;;5099898;28;19928;-97
2022/07/24 13:09:45;;;;;;;;;;;43.60;23.10;;;;;;5117335;28;19942;-96
2022/07/24 13:12:11;;;;;;;;;;;44.30;22.60;;;;;;5098084;28;20001;-96
2022/07/24 13:14:37;;;;;;;;;;;44.90;22.00;;;;;;5114235;28;20473;-96
2022/07/24 13:17:03;;;;;;;;;;;45.40;21.40;;;;;;5110990;28;19941;-96
2022/07/24 13:19:29;;;;;;;;;;;45.50;21.90;;;;;;5110859;28;20001;-96
2022/07/24 13:21:55;;;;;;;;;;;46.00;21.60;;;;;;5110655;28;19941;-96
2022/07/24 13:24:21;;;;;;;;;;;46.20;20.80;;;;;;5088014;28;19979;-96
2022/07/24 13:26:47;;;;;;;;;;;46.60;19.30;;;;;;5091610;28;19939;-96
2022/07/24 13:29:14;;;;;;;;;;;47.40;19.20;;;;;;5096327;28;19950;-96
2022/07/24 13:31:43;;;;;;;;;;;47.80;19.20;;;;;;5095163;28;20387;-97
2022/07/24 13:34:09;;;;;;;;;;;47.40;19.40;;;;;;5094443;28;19947;-96
2022/07/24 13:36:36;;;;;;;;;;;47.40;19.40;;;;;;5102985;28;20366;-96
2022/07/24 13:39:03;;;;;;;;;;;46.20;19.10;;;;;;5098798;28;19942;-96
2022/07/24 13:41:29;;;;;;;;;;;45.60;21.80;;;;;;5097701;28;19946;-96
2022/07/24 13:43:55;;;;;;;;;;;45.00;20.50;;;;;;5097164;28;19941;-96
2022/07/24 13:46:20;;;;;;;;;;;44.70;21.60;;;;;;5097761;28;19989;-96
2022/07/24 13:48:46;;;;;;;;;;;45.10;20.30;;;;;;5098722;28;19936;-96
2022/07/24 13:51:11;;;;;;;;;;;44.20;21.50;;;;;;5099153;28;19940;-96
2022/07/24 13:53:37;;;;;;;;;;;44.30;21.40;;;;;;5102364;28;20044;-96
2022/07/24 13:56:04;;;;;;;;;;;44.40;20.60;;;;;;5102238;28;19954;-96
2022/07/24 13:58:29;;;;;;;;;;;44.50;20.10;;;;;;5085413;28;19977;-96
2022/07/24 14:00:55;;;;;;;;;;;44.50;20.60;;;;;;5103479;28;19949;-96
2022/07/24 14:03:21;;;;;;;;;;;44.80;20.30;;;;;;5081816;28;19939;-96
2022/07/24 14:05:47;;;;;;;;;;;44.90;20.00;;;;;;5101792;28;19948;-96
2022/07/24 14:08:13;;;;;;;;;;;45.30;19.50;;;;;;5089547;28;20289;-96
2022/07/24 14:10:39;;;;;;;;;;;45.60;19.20;;;;;;5089499;28;19952;-96
2022/07/24 14:13:05;;;;;;;;;;;45.40;18.80;;;;;;5090907;28;19943;-97
2022/07/24 14:15:31;;;;;;;;;;;45.80;20.20;;;;;;5089667;28;19967;-96
2022/07/24 14:17:57;;;;;;;;;;;46.00;19.00;;;;;;5108394;28;20395;-96
2022/07/24 14:20:23;;;;;;;;;;;46.10;18.90;;;;;;5090728;28;19948;-96
2022/07/24 14:22:50;;;;;;;;;;;46.20;19.10;;;;;;5091563;28;19944;-96